Time;durP1;ratioP1;P1;durP2;ratioP2;P2;SDS_P1;SDS_P2;PMS_P1;PMS_P2;Temp;Humidity;BMP_temperature;BMP_pressure;BME280_temperature;BME280_humidity;BME280_pressure;Samples;Min_cycle;Max_cycle;Signal;HPM_P1;HPM_P2
2022/05/06 00:00:01;;;;;;;51.85;28.33;;;;;;;10.69;100.00;102370.34;5132821;28;20043;-76
2022/05/06 00:02:26;;;;;;;47.72;28.45;;;;;;;10.72;100.00;102375.34;5115219;28;20023;-76
2022/05/06 00:04:51;;;;;;;49.65;28.75;;;;;;;10.68;100.00;102367.84;5114550;28;20386;-76
2022/05/06 00:10:38;;;;;;;50.00;28.42;;;;;;;10.65;100.00;102365.53;5133727;27;20088;-76
2022/05/06 00:13:04;;;;;;;51.17;27.30;;;;;;;10.67;100.00;102367.00;5115010;28;20023;-76
2022/05/06 00:15:29;;;;;;;50.83;28.58;;;;;;;10.64;100.00;102364.69;5133330;28;20379;-76
2022/05/06 00:17:55;;;;;;;54.63;29.57;;;;;;;10.58;100.00;102368.06;5132556;28;20058;-76
2022/05/06 00:20:20;;;;;;;56.05;29.55;;;;;;;10.56;100.00;102372.78;5133341;28;20272;-76
2022/05/06 00:22:45;;;;;;;53.35;30.98;;;;;;;10.44;100.00;102383.03;5132439;28;20059;-76
2022/05/06 00:25:11;;;;;;;58.50;30.20;;;;;;;10.38;100.00;102372.19;5114879;28;20031;-76
2022/05/06 00:27:41;;;;;;;56.47;30.02;;;;;;;10.40;100.00;102380.88;5114355;28;20637;-76
2022/05/06 00:30:07;;;;;;;49.03;27.65;;;;;;;10.39;100.00;102380.03;5132100;27;20046;-76
2022/05/06 00:32:33;;;;;;;60.53;31.63;;;;;;;10.33;100.00;102372.72;5132724;28;20076;-76
2022/05/06 00:34:58;;;;;;;54.13;30.27;;;;;;;10.38;100.00;102385.56;5132125;28;20047;-76
2022/05/06 00:37:23;;;;;;;55.38;32.03;;;;;;;10.36;100.00;102379.56;5114587;28;20039;-76
2022/05/06 00:39:49;;;;;;;67.65;31.65;;;;;;;10.34;100.00;102376.22;5132137;28;20074;-76
2022/05/06 00:42:16;;;;;;;60.75;33.38;;;;;;;10.33;100.00;102378.06;5114560;28;20031;-76
2022/05/06 00:44:41;;;;;;;58.63;31.67;;;;;;;10.29;100.00;102381.28;5132877;28;20394;-76
2022/05/06 00:47:06;;;;;;;60.38;30.45;;;;;;;10.24;100.00;102373.78;5113737;28;20035;-75
2022/05/06 00:49:32;;;;;;;63.45;32.42;;;;;;;10.21;100.00;102374.97;5114371;28;20114;-75
2022/05/06 00:51:57;;;;;;;58.50;30.63;;;;;;;10.15;100.00;102380.13;5113777;28;20054;-76
2022/05/06 00:54:23;;;;;;;60.03;31.42;;;;;;;10.11;100.00;102376.13;5132832;28;20467;-76
2022/05/06 00:56:50;;;;;;;58.50;31.42;;;;;;;10.09;100.00;102376.28;5132856;28;20471;-76
2022/05/06 00:59:16;;;;;;;65.38;33.53;;;;;;;10.09;100.00;102386.16;5113773;28;20042;-76
2022/05/06 01:01:41;;;;;;;69.60;33.92;;;;;;;10.09;100.00;102375.47;5132841;28;20110;-76
2022/05/06 01:04:07;;;;;;;63.38;32.53;;;;;;;10.07;100.00;102380.16;5113764;28;20050;-76
2022/05/06 01:06:35;;;;;;;65.88;33.42;;;;;;;10.01;100.00;102384.34;5132659;28;20051;-76
2022/05/06 01:09:00;;;;;;;63.97;31.48;;;;;;;9.92;100.00;102380.03;5132354;28;20023;-76
2022/05/06 01:11:26;;;;;;;59.33;30.25;;;;;;;9.87;100.00;102383.25;5113825;28;20572;-76
2022/05/06 01:13:55;;;;;;;63.15;31.95;;;;;;;9.82;100.00;102388.22;5132424;28;20471;-76
2022/05/06 01:16:21;;;;;;;62.95;30.60;;;;;;;9.77;100.00;102389.75;5131537;28;20372;-76
2022/05/06 01:18:47;;;;;;;63.50;30.80;;;;;;;9.70;100.00;102383.44;5114000;28;20072;-76
2022/05/06 01:21:21;;;;;;;60.70;30.90;;;;;;;9.62;100.00;102384.28;5131593;28;20043;-76
2022/05/06 01:23:47;;;;;;;58.33;28.83;;;;;;;9.57;100.00;102389.31;5132389;28;20383;-76
2022/05/06 01:26:12;;;;;;;55.43;27.90;;;;;;;9.53;100.00;102390.63;5113865;28;20027;-76
2022/05/06 01:28:38;;;;;;;67.17;31.47;;;;;;;9.46;100.00;102389.63;5131444;28;20353;-75
2022/05/06 01:31:05;;;;;;;64.57;33.30;;;;;;;9.34;100.00;102383.81;5132310;28;20276;-75
2022/05/06 01:33:32;;;;;;;68.68;33.72;;;;;;;9.32;100.00;102394.66;5113289;28;20054;-76
2022/05/06 01:36:01;;;;;;;68.50;33.70;;;;;;;9.32;100.00;102391.16;5132191;28;20060;-76
2022/05/06 01:38:36;;;;;;;72.90;33.90;;;;;;;9.35;100.00;102401.50;5132130;28;20038;-76
2022/05/06 01:41:09;;;;;;;80.38;36.65;;;;;;;9.39;100.00;102389.50;5125852;28;20126;-76
2022/05/06 01:43:46;;;;;;;89.15;37.10;;;;;;;9.48;100.00;102390.31;5135407;28;20038;-76
2022/05/06 01:46:14;;;;;;;94.47;35.13;;;;;;;9.55;100.00;102383.31;5135259;28;20035;-76
2022/05/06 01:52:01;;;;;;;103.05;37.03;;;;;;;9.57;100.00;102392.81;5136094;28;20088;-76
2022/05/06 01:54:27;;;;;;;127.13;37.83;;;;;;;9.54;100.00;102387.81;5135505;28;20110;-76
2022/05/06 01:56:52;;;;;;;122.57;39.58;;;;;;;9.57;100.00;102395.47;5134821;28;20062;-76
2022/05/06 01:59:18;;;;;;;143.90;38.95;;;;;;;9.63;100.00;102392.13;5135634;28;20528;-76
2022/05/06 02:01:44;;;;;;;99.57;36.80;;;;;;;9.70;100.00;102394.94;5117077;28;20027;-76
2022/05/06 02:06:53;;;;;;;93.80;37.35;;;;;;;9.70;100.00;102384.28;5135551;28;20039;-76
2022/05/06 02:09:18;;;;;;;135.30;41.27;;;;;;;9.71;100.00;102385.09;5134575;28;20410;-76
2022/05/06 02:11:44;;;;;;;117.57;38.58;;;;;;;9.73;100.00;102389.25;5116996;28;20280;-76
2022/05/06 02:14:09;;;;;;;128.15;40.45;;;;;;;9.69;100.00;102393.28;5116301;28;20364;-76
2022/05/06 02:16:35;;;;;;;132.63;40.42;;;;;;;9.59;100.00;102390.81;5134883;28;20047;-76
2022/05/06 02:19:00;;;;;;;120.83;41.17;;;;;;;9.50;100.00;102386.47;5135318;28;20050;-76
2022/05/06 02:21:25;;;;;;;133.10;42.72;;;;;;;9.47;100.00;102386.81;5116082;28;20402;-76
2022/05/06 02:23:51;;;;;;;161.98;40.00;;;;;;;9.40;100.00;102387.66;5116816;28;20027;-76
2022/05/06 02:26:16;;;;;;;162.18;40.30;;;;;;;9.37;100.00;102402.16;5134592;28;20031;-76
2022/05/06 02:28:41;;;;;;;110.97;38.15;;;;;;;9.29;100.00;102394.19;5134858;28;20487;-76
2022/05/06 02:33:50;;;;;;;121.07;40.17;;;;;;;9.26;100.00;102386.50;5134168;28;20337;-76
2022/05/06 02:36:16;;;;;;;156.85;39.72;;;;;;;9.31;100.00;102385.00;5135077;28;20437;-76
2022/05/06 02:38:41;;;;;;;144.32;38.95;;;;;;;9.38;100.00;102395.00;5134180;28;20043;-76
2022/05/06 02:41:06;;;;;;;165.63;41.65;;;;;;;9.29;100.00;102388.84;5134982;28;20111;-76
2022/05/06 02:43:32;;;;;;;192.23;41.58;;;;;;;9.32;100.00;102401.84;5116520;28;20475;-76
2022/05/06 02:45:57;;;;;;;147.03;38.27;;;;;;;9.24;100.00;102391.16;5134149;28;20047;-76
2022/05/06 02:48:22;;;;;;;147.85;38.03;;;;;;;9.28;100.00;102400.50;5116574;28;20265;-77
2022/05/06 02:50:47;;;;;;;122.18;36.45;;;;;;;9.28;100.00;102404.00;5133952;28;20035;-77
2022/05/06 02:53:13;;;;;;;134.57;36.83;;;;;;;9.24;100.00;102405.31;5133968;27;20046;-76
2022/05/06 02:55:39;;;;;;;202.32;40.38;;;;;;;9.25;100.00;102404.34;5134412;28;20640;-76
2022/05/06 02:58:04;;;;;;;125.55;35.92;;;;;;;9.26;100.00;102399.84;5133981;28;20042;-76
2022/05/06 03:00:30;;;;;;;155.35;37.58;;;;;;;9.28;100.00;102396.00;5116178;28;20019;-76
2022/05/06 03:02:56;;;;;;;135.07;37.10;;;;;;;9.32;100.00;102404.50;5115546;28;20035;-76
2022/05/06 03:05:22;;;;;;;169.10;37.53;;;;;;;9.32;100.00;102397.34;5116118;28;20035;-76
2022/05/06 03:07:48;;;;;;;128.55;37.72;;;;;;;9.33;100.00;102400.84;5133911;28;20031;-77
2022/05/06 03:10:13;;;;;;;128.13;38.28;;;;;;;9.35;100.00;102395.34;5116057;28;20435;-76
2022/05/06 03:12:42;;;;;;;181.65;42.22;;;;;;;9.40;100.00;102407.16;5134505;28;20431;-76
2022/05/06 03:15:08;;;;;;;147.57;37.55;;;;;;;9.40;100.00;102401.84;5133545;28;20041;-76
2022/05/06 03:17:34;;;;;;;158.27;38.20;;;;;;;9.39;100.00;102397.50;5134352;28;20417;-76
2022/05/06 03:19:59;;;;;;;151.23;38.38;;;;;;;9.40;100.00;102398.31;5133480;28;20038;-76
2022/05/06 03:22:25;;;;;;;172.40;37.17;;;;;;;9.38;100.00;102393.16;5134393;28;20031;-77
2022/05/06 03:24:50;;;;;;;141.00;38.95;;;;;;;9.29;100.00;102383.50;5115914;28;20035;-77
2022/05/06 03:30:00;;;;;;;196.48;37.33;;;;;;;9.29;100.00;102402.19;5134349;28;20062;-76
2022/05/06 03:32:27;;;;;;;170.65;34.95;;;;;;;9.24;100.00;102394.66;5133497;28;20070;-76
2022/05/06 03:34:53;;;;;;;236.13;40.83;;;;;;;9.20;100.00;102393.31;5134049;28;20038;-76
2022/05/06 03:37:18;;;;;;;205.18;37.83;;;;;;;9.22;100.00;102391.31;5133571;28;20031;-76
2022/05/06 03:39:43;;;;;;;153.68;36.75;;;;;;;9.19;100.00;102391.66;5133883;28;20138;-76
2022/05/06 03:42:09;;;;;;;218.93;39.05;;;;;;;9.15;100.00;102384.16;5134086;28;20034;-76
2022/05/06 03:44:34;;;;;;;203.75;34.95;;;;;;;9.20;100.00;102395.16;5114934;28;20039;-77
2022/05/06 03:46:59;;;;;;;252.52;38.55;;;;;;;9.13;100.00;102397.66;5133876;27;20076;-76
2022/05/06 03:49:25;;;;;;;179.32;36.55;;;;;;;9.12;100.00;102400.50;5114636;28;20039;-76
2022/05/06 03:51:50;;;;;;;225.70;38.92;;;;;;;9.08;100.00;102391.16;5134031;28;20038;-77
2022/05/06 03:54:16;;;;;;;150.88;34.97;;;;;;;9.13;100.00;102400.31;5134214;28;20102;-77
2022/05/06 03:56:41;;;;;;;197.30;36.55;;;;;;;9.11;100.00;102393.50;5132953;28;20384;-76
2022/05/06 03:59:06;;;;;;;201.95;34.28;;;;;;;9.18;100.00;102397.16;5133780;28;20038;-77
2022/05/06 04:01:33;;;;;;;198.33;34.10;;;;;;;9.15;100.00;102400.16;5114718;28;20035;-76
2022/05/06 04:03:58;;;;;;;162.43;34.78;;;;;;;9.14;100.00;102401.16;5133804;28;20280;-76
2022/05/06 04:06:23;;;;;;;196.18;35.20;;;;;;;9.15;100.00;102400.16;5133443;27;20031;-76
2022/05/06 04:08:49;;;;;;;225.90;33.78;;;;;;;9.20;100.00;102403.16;5132913;28;20039;-76
2022/05/06 04:11:14;;;;;;;240.35;32.95;;;;;;;9.15;100.00;102408.16;5133562;28;20475;-77
2022/05/06 04:13:40;;;;;;;171.95;31.90;;;;;;;9.09;100.00;102400.84;5114522;28;20043;-77
2022/05/06 04:16:07;;;;;;;145.32;30.92;;;;;;;9.14;100.00;102411.84;5115044;28;20251;-77
2022/05/06 04:18:33;;;;;;;178.00;32.03;;;;;;;9.11;100.00;102409.50;5133553;28;20469;-77
2022/05/06 04:23:42;;;;;;;158.68;32.05;;;;;;;9.13;100.00;102408.34;5133524;28;20080;-77
2022/05/06 04:26:11;;;;;;;162.18;32.90;;;;;;;9.18;100.00;102413.16;5114395;28;20035;-77
2022/05/06 04:28:37;;;;;;;153.85;30.25;;;;;;;9.22;100.00;102422.50;5133228;28;20084;-77
2022/05/06 04:31:03;;;;;;;131.90;31.23;;;;;;;9.22;100.00;102417.16;5132560;28;20047;-77
2022/05/06 04:33:29;;;;;;;150.52;30.58;;;;;;;9.28;100.00;102413.84;5133385;28;20027;-77
2022/05/06 04:35:56;;;;;;;161.20;30.67;;;;;;;9.34;100.00;102415.84;5133151;28;20033;-76
2022/05/06 04:38:26;;;;;;;117.68;29.60;;;;;;;9.42;100.00;102413.19;5132321;28;20039;-77
2022/05/06 04:40:53;;;;;;;113.03;29.42;;;;;;;9.51;100.00;102422.84;5114708;28;20034;-77
2022/05/06 04:43:20;;;;;;;121.32;31.25;;;;;;;9.57;100.00;102422.19;5132247;28;20039;-76
2022/05/06 04:45:46;;;;;;;135.43;29.00;;;;;;;9.57;100.00;102416.03;5133094;28;20061;-77
2022/05/06 04:48:12;;;;;;;119.90;28.55;;;;;;;9.57;100.00;102422.19;5114760;28;20058;-77
2022/05/06 04:50:42;;;;;;;125.15;28.88;;;;;;;9.59;100.00;102428.19;5132242;28;20531;-77
2022/05/06 04:53:09;;;;;;;141.32;32.75;;;;;;;9.54;100.00;102433.22;5132866;28;20478;-76
2022/05/06 04:55:38;;;;;;;135.05;28.75;;;;;;;9.48;100.00;102436.53;5132044;28;20491;-77
2022/05/06 04:58:04;;;;;;;121.05;29.23;;;;;;;9.45;100.00;102431.53;5114439;28;20058;-76
2022/05/06 05:00:30;;;;;;;168.43;33.28;;;;;;;9.40;100.00;102430.38;5132074;28;20140;-77
2022/05/06 05:02:56;;;;;;;210.30;32.95;;;;;;;9.41;100.00;102437.38;5132868;28;20059;-77
2022/05/06 05:05:21;;;;;;;159.52;32.63;;;;;;;9.47;100.00;102445.53;5114309;28;20069;-77
2022/05/06 05:07:47;;;;;;;127.13;27.75;;;;;;;9.44;100.00;102440.53;5131961;28;20039;-77
2022/05/06 05:10:13;;;;;;;217.30;29.38;;;;;;;9.44;100.00;102453.88;5114262;28;20597;-77
2022/05/06 05:12:38;;;;;;;123.30;29.00;;;;;;;9.46;100.00;102449.22;5132026;28;20076;-76
2022/05/06 05:15:04;;;;;;;150.60;27.88;;;;;;;9.51;100.00;102465.56;5132680;28;20505;-77
2022/05/06 05:17:30;;;;;;;134.88;28.63;;;;;;;9.58;100.00;102460.41;5131651;27;20367;-77
2022/05/06 05:19:55;;;;;;;96.43;27.70;;;;;;;9.58;100.00;102463.91;5113520;28;20055;-77
2022/05/06 05:22:20;;;;;;;134.90;30.60;;;;;;;9.58;100.00;102455.91;5132475;28;20371;-77
2022/05/06 05:28:14;;;;;;;155.45;24.63;;;;;;;9.51;100.00;102472.75;5132774;28;20570;-76
2022/05/06 05:30:40;;;;;;;144.77;27.58;;;;;;;9.40;100.00;102460.56;5131590;28;20502;-77
2022/05/06 05:33:05;;;;;;;112.10;26.30;;;;;;;9.52;100.00;102466.41;5132424;28;20035;-77
2022/05/06 05:35:31;;;;;;;149.73;27.00;;;;;;;9.54;100.00;102464.38;5132058;28;20481;-77
2022/05/06 05:37:56;;;;;;;143.23;27.25;;;;;;;9.61;100.00;102458.25;5131791;28;20039;-77
2022/05/06 05:40:22;;;;;;;124.45;27.17;;;;;;;9.70;100.00;102463.56;5113680;28;20054;-77
2022/05/06 05:42:47;;;;;;;135.40;24.63;;;;;;;9.76;100.00;102457.53;5131464;28;20478;-77
2022/05/06 05:50:40;;;;;;;127.18;26.52;;;;;;;9.94;100.00;102464.38;5132387;28;20498;-76
2022/05/06 05:53:05;;;;;;;89.83;26.00;;;;;;;9.98;100.00;102464.88;5132094;28;20027;-76
2022/05/06 05:55:31;;;;;;;105.35;28.50;;;;;;;9.99;100.00;102471.03;5131333;28;20685;-77
2022/05/06 05:57:56;;;;;;;87.75;26.77;;;;;;;10.05;100.00;102468.50;5113355;28;20079;-77
2022/05/06 06:00:21;;;;;;;93.28;28.52;;;;;;;10.21;100.00;102473.88;5131019;28;20043;-77
2022/05/06 06:02:47;;;;;;;123.18;29.35;;;;;;;10.22;100.00;102478.22;5131766;28;20106;-77
2022/05/06 06:05:12;;;;;;;101.82;26.40;;;;;;;10.26;100.00;102468.00;5131408;28;20035;-77
2022/05/06 06:07:38;;;;;;;133.80;28.20;;;;;;;10.27;100.00;102469.66;5113433;28;20071;-77
2022/05/06 06:10:03;;;;;;;113.93;28.10;;;;;;;10.32;100.00;102458.44;5131924;28;20458;-77
2022/05/06 06:12:29;;;;;;;115.38;31.38;;;;;;;10.33;100.00;102460.94;5130960;28;20500;-77
2022/05/06 06:14:55;;;;;;;184.20;34.20;;;;;;;10.32;100.00;102459.28;5131684;28;20028;-77
2022/05/06 06:17:21;;;;;;;132.60;30.42;;;;;;;10.37;100.00;102466.78;5130839;28;20078;-77
2022/05/06 06:19:47;;;;;;;150.57;29.17;;;;;;;10.40;100.00;102466.44;5131716;28;20479;-77
2022/05/06 06:22:12;;;;;;;87.40;27.63;;;;;;;10.43;100.00;102461.59;5131696;28;20041;-77
2022/05/06 06:24:38;;;;;;;129.73;30.67;;;;;;;10.52;100.00;102467.75;5130836;28;20039;-76
2022/05/06 06:27:03;;;;;;;105.78;32.33;;;;;;;10.63;100.00;102456.66;5131628;28;20095;-76
2022/05/06 06:29:29;;;;;;;97.25;30.08;;;;;;;10.80;100.00;102454.75;5115675;28;20055;-76
2022/05/06 06:31:55;;;;;;;133.88;34.10;;;;;;;10.98;100.00;102465.16;5135101;28;20058;-77
2022/05/06 06:34:20;;;;;;;119.55;34.03;;;;;;;11.07;100.00;102459.59;5135023;28;20054;-77
2022/05/06 06:36:45;;;;;;;129.63;32.53;;;;;;;11.18;100.00;102458.34;5134044;28;20443;-77
2022/05/06 06:39:10;;;;;;;108.17;33.60;;;;;;;11.33;100.00;102461.94;5135067;28;20110;-76
2022/05/06 06:41:36;;;;;;;172.17;35.87;;;;;;;11.44;100.00;102458.81;5115856;28;20331;-77
2022/05/06 06:44:01;;;;;;;94.57;32.70;;;;;;;11.43;100.00;102464.34;5134891;28;20272;-77
2022/05/06 06:46:26;;;;;;;106.72;31.63;;;;;;;11.52;100.00;102463.25;5134251;28;20841;-77
2022/05/06 06:48:52;;;;;;;100.35;28.60;;;;;;;11.74;100.00;102472.28;5134474;28;20540;-77
2022/05/06 06:51:18;;;;;;;96.53;30.77;;;;;;;11.90;100.00;102468.66;5134508;28;20053;-77
2022/05/06 06:53:43;;;;;;;107.22;35.35;;;;;;;11.92;100.00;102474.69;5133899;28;20559;-77
2022/05/06 06:56:08;;;;;;;139.85;35.40;;;;;;;11.86;100.00;102476.25;5134988;28;20130;-77
2022/05/06 06:58:34;;;;;;;113.85;35.20;;;;;;;11.75;100.00;102473.94;5133774;28;20042;-77
2022/05/06 07:00:59;;;;;;;119.40;35.95;;;;;;;11.68;100.00;102484.56;5134501;28;20039;-77
2022/05/06 07:03:25;;;;;;;103.93;33.20;;;;;;;11.74;100.00;102493.72;5116015;28;20119;-76
2022/05/06 07:14:02;;;;;;;109.63;34.33;;;;;;;12.04;100.00;102495.47;5134631;28;20074;-77
2022/05/06 07:16:27;;;;;;;115.57;36.08;;;;;;;12.19;100.00;102502.72;5115084;28;20066;-76
2022/05/06 07:22:14;;;;;;;141.77;41.45;;;;;;;12.10;100.00;102493.91;5134545;28;20054;-77
2022/05/06 07:24:40;;;;;;;143.40;37.35;;;;;;;12.01;100.00;102482.44;5115822;28;20031;-77
2022/05/06 07:27:07;;;;;;;117.47;35.42;;;;;;;12.03;100.00;102503.72;5134270;28;20114;-75
2022/05/06 07:29:33;;;;;;;137.13;42.05;;;;;;;11.84;100.00;102499.69;5133287;28;20099;-77
2022/05/06 07:31:58;;;;;;;137.82;40.70;;;;;;;11.92;100.00;102504.16;5134042;28;20545;-77
2022/05/06 07:34:23;;;;;;;151.50;42.53;;;;;;;12.00;100.00;102512.13;5133135;28;20540;-77
2022/05/06 07:36:49;;;;;;;151.70;43.00;;;;;;;12.03;100.00;102511.75;5134035;28;20284;-76
2022/05/06 07:39:15;;;;;;;151.70;41.75;;;;;;;12.09;100.00;102519.91;5133770;27;20273;-76
2022/05/06 07:41:41;;;;;;;161.38;45.35;;;;;;;12.14;100.00;102519.34;5132912;28;20075;-77
2022/05/06 07:44:07;;;;;;;157.30;42.47;;;;;;;12.09;100.00;102519.06;5115281;28;20083;-76
2022/05/06 07:46:33;;;;;;;161.85;45.22;;;;;;;12.20;100.00;102528.53;5114646;27;20125;-77
2022/05/06 07:48:59;;;;;;;165.07;45.85;;;;;;;12.37;100.00;102530.84;5133749;28;20023;-77
2022/05/06 07:51:24;;;;;;;166.18;48.25;;;;;;;12.46;100.00;102530.78;5114930;28;20072;-76
2022/05/06 07:53:52;;;;;;;157.07;46.55;;;;;;;12.58;100.00;102527.44;5115015;28;20031;-76
2022/05/06 07:56:18;;;;;;;159.93;45.83;;;;;;;12.68;100.00;102530.66;5133577;28;20066;-76
2022/05/06 07:58:43;;;;;;;165.43;45.55;;;;;;;12.76;100.00;102532.44;5132542;28;20127;-77
2022/05/06 08:01:11;;;;;;;167.30;45.70;;;;;;;12.84;100.00;102528.78;5133382;28;20555;-77
2022/05/06 08:06:25;;;;;;;190.10;52.70;;;;;;;12.94;100.00;102540.91;5103960;28;20104;-76
2022/05/06 08:08:50;;;;;;;179.97;49.60;;;;;;;12.99;100.00;102543.00;5133572;28;20019;-76
2022/05/06 08:11:16;;;;;;;185.05;50.72;;;;;;;13.02;100.00;102542.66;5132731;28;20371;-76
2022/05/06 08:13:42;;;;;;;173.63;51.17;;;;;;;12.98;100.00;102541.34;5133499;28;20106;-76
2022/05/06 08:16:07;;;;;;;161.90;49.90;;;;;;;13.05;100.00;102550.34;5132449;28;20126;-77
2022/05/06 08:21:55;;;;;;;179.25;55.35;;;;;;;13.35;100.00;102542.25;5133584;28;20088;-77
2022/05/06 08:24:21;;;;;;;165.38;53.40;;;;;;;13.22;100.00;102545.59;5114837;28;20031;-76
2022/05/06 08:26:47;;;;;;;173.18;54.90;;;;;;;13.01;100.00;102538.31;5114540;28;20054;-77
2022/05/06 08:29:13;;;;;;;168.38;55.28;;;;;;;12.95;100.00;102528.31;5114688;28;20080;-76
2022/05/06 08:31:39;;;;;;;176.25;54.75;;;;;;;13.16;100.00;102539.09;5114843;28;20487;-77
2022/05/06 08:34:07;;;;;;;154.82;50.65;;;;;;;13.29;100.00;102535.75;5132326;28;20067;-77
2022/05/06 08:36:34;;;;;;;154.90;52.05;;;;;;;13.41;100.00;102539.63;5133233;28;20030;-76
2022/05/06 08:39:00;;;;;;;147.38;47.95;;;;;;;13.33;100.00;102535.19;5113854;28;20192;-77
2022/05/06 08:41:27;;;;;;;157.75;50.22;;;;;;;13.33;100.00;102529.00;5133141;28;20023;-77
2022/05/06 08:43:52;;;;;;;149.48;45.80;;;;;;;13.67;100.00;102517.53;5132911;28;20117;-77
2022/05/06 08:51:52;;;;;;;135.52;44.85;;;;;;;15.49;90.96;102518.94;5130947;27;20037;-77
2022/05/06 08:54:17;;;;;;;135.70;45.13;;;;;;;15.47;91.00;102513.75;5114235;28;20134;-76
2022/05/06 08:56:43;;;;;;;143.27;46.85;;;;;;;15.62;91.26;102519.00;5132053;28;20550;-77
2022/05/06 08:59:09;;;;;;;119.13;41.80;;;;;;;15.82;90.77;102520.84;5132884;28;20020;-76
2022/05/06 09:01:34;;;;;;;126.55;42.17;;;;;;;16.51;86.56;102517.66;5114286;28;20031;-76
2022/05/06 09:03:59;;;;;;;115.33;40.03;;;;;;;17.00;82.67;102520.59;5131995;28;20050;-76
2022/05/06 09:06:27;;;;;;;128.82;42.63;;;;;;;17.16;83.45;102527.38;5132676;28;20347;-77
2022/05/06 09:08:55;;;;;;;116.82;42.00;;;;;;;17.40;80.60;102525.78;5131771;28;20203;-80
2022/05/06 09:12:40;;;;;;;121.85;45.58;;;;;;;17.37;81.28;102520.81;5132499;28;20035;-76
2022/05/06 09:14:12;;;;;;;126.55;42.42;;;;;;;17.07;81.63;102519.75;5132062;28;20081;-76
2022/05/06 09:16:40;;;;;;;125.40;42.80;;;;;;;16.71;81.69;102521.97;5132255;28;20091;-76
2022/05/06 09:19:15;;;;;;;116.95;41.40;;;;;;;17.39;83.89;102526.84;5114032;28;20506;-76
2022/05/06 09:21:59;;;;;;;122.10;43.30;;;;;;;19.40;72.85;102521.63;5131673;28;20077;-77
2022/05/06 09:24:25;;;;;;;123.07;43.30;;;;;;;21.18;65.53;102525.66;5132477;28;20114;-76
2022/05/06 09:27:00;;;;;;;113.82;41.40;;;;;;;21.90;62.26;102525.81;5113452;28;20146;-77
2022/05/06 09:29:27;;;;;;;105.82;39.53;;;;;;;21.67;59.77;102515.09;5113861;28;20058;-77
2022/05/06 09:31:54;;;;;;;107.90;39.70;;;;;;;22.26;57.99;102515.47;5132113;28;20023;-77
2022/05/06 09:34:26;;;;;;;95.70;38.92;;;;;;;22.97;57.74;102507.41;5131754;28;20035;-77
2022/05/06 09:36:51;;;;;;;87.90;36.25;;;;;;;23.77;52.56;102507.38;5113855;28;20167;-77
2022/05/06 09:39:16;;;;;;;88.83;39.17;;;;;;;24.50;49.83;102507.53;5113210;28;20443;-77
2022/05/06 09:41:41;;;;;;;86.55;37.25;;;;;;;25.37;47.70;102505.88;5113657;28;20284;-77
2022/05/06 09:44:09;;;;;;;96.93;40.57;;;;;;;25.61;47.05;102506.16;5131291;28;20054;-77
2022/05/06 09:46:35;;;;;;;93.97;40.33;;;;;;;25.79;45.59;102504.81;5131993;27;20280;-77
2022/05/06 09:49:02;;;;;;;89.43;38.45;;;;;;;25.49;45.88;102500.97;5132056;28;20107;-77
2022/05/06 09:51:29;;;;;;;87.95;37.83;;;;;;;25.30;45.79;102500.66;5131155;28;20135;-77
2022/05/06 09:53:56;;;;;;;84.70;35.13;;;;;;;25.94;45.48;102502.84;5132041;28;20027;-77
2022/05/06 09:56:22;;;;;;;85.82;35.38;;;;;;;25.17;45.15;102497.66;5130954;28;20118;-77
2022/05/06 09:58:51;;;;;;;82.32;35.08;;;;;;;24.24;48.14;102487.41;5131858;28;20050;-77
2022/05/06 10:01:17;;;;;;;77.30;34.15;;;;;;;23.80;48.79;102500.56;5131846;28;20052;-76
2022/05/06 10:07:12;;;;;;;77.38;34.40;;;;;;;22.93;54.08;102500.81;5135716;27;20511;-77
2022/05/06 10:09:57;;;;;;;71.80;31.27;;;;;;;23.67;52.87;102499.06;5134589;28;20046;-77
2022/05/06 10:12:24;;;;;;;70.80;33.05;;;;;;;24.59;49.25;102497.75;5135494;28;20050;-77
2022/05/06 10:14:51;;;;;;;76.22;33.47;;;;;;;24.98;47.73;102489.94;5134605;27;20138;-77
2022/05/06 10:17:48;;;;;;;69.57;30.48;;;;;;;24.62;49.19;102491.75;5135356;28;20114;-77
2022/05/06 10:20:45;;;;;;;64.88;30.42;;;;;;;25.58;47.44;102493.00;5134432;28;20047;-77
2022/05/06 10:23:15;;;;;;;65.70;29.33;;;;;;;26.07;43.90;102482.28;5135314;28;20034;-77
2022/05/06 10:25:40;;;;;;;65.72;28.95;;;;;;;25.07;44.23;102483.94;5134446;28;20139;-77
2022/05/06 10:34:14;;;;;;;61.83;28.47;;;;;;;23.74;49.51;102475.09;5135332;28;20456;-77
2022/05/06 10:36:47;;;;;;;57.85;26.50;;;;;;;23.70;49.69;102476.69;5135092;28;20031;-77
2022/05/06 10:39:27;;;;;;;57.67;27.85;;;;;;;23.98;50.13;102474.69;5134292;28;20173;-77
2022/05/06 10:42:06;;;;;;;54.83;26.52;;;;;;;23.65;49.38;102476.66;5116622;28;20452;-78
2022/05/06 10:44:42;;;;;;;43.88;20.70;;;;;;;23.27;49.72;102472.22;5134162;28;20047;-77
2022/05/06 10:47:13;;;;;;;44.92;21.63;;;;;;;22.95;50.90;102465.91;5134856;27;20027;-77
2022/05/06 10:49:38;;;;;;;46.42;21.70;;;;;;;22.88;49.49;102462.56;5134067;28;20464;-77
2022/05/06 10:55:25;;;;;;;45.08;22.52;;;;;;;23.15;49.72;102449.75;5134012;28;20120;-77
2022/05/06 10:57:54;;;;;;;42.38;19.15;;;;;;;22.97;51.74;102461.84;5134597;28;20023;-77
2022/05/06 11:00:21;;;;;;;48.17;21.55;;;;;;;22.80;50.06;102461.06;5134749;28;20042;-77
2022/05/06 11:02:47;;;;;;;46.08;22.23;;;;;;;23.25;50.50;102458.00;5133871;28;20531;-77
2022/05/06 11:05:17;;;;;;;36.97;17.55;;;;;;;23.29;48.44;102463.78;5134496;28;20065;-77
2022/05/06 11:07:44;;;;;;;40.72;18.88;;;;;;;23.04;48.53;102447.97;5133750;28;20043;-77
2022/05/06 11:10:16;;;;;;;44.08;21.33;;;;;;;23.20;48.42;102448.97;5134612;28;20051;-76
2022/05/06 11:12:45;;;;;;;38.22;18.58;;;;;;;23.88;46.66;102453.59;5133882;28;20043;-77
2022/05/06 11:15:15;;;;;;;37.13;18.58;;;;;;;24.00;45.82;102447.94;5133310;27;20552;-77
2022/05/06 11:17:42;;;;;;;40.30;19.00;;;;;;;23.69;45.52;102449.63;5115911;28;20209;-76
2022/05/06 11:20:15;;;;;;;32.53;16.65;;;;;;;23.76;46.66;102445.63;5115263;28;20039;-77
2022/05/06 11:22:49;;;;;;;37.92;17.77;;;;;;;23.34;47.66;102453.72;5115767;28;20028;-77
2022/05/06 11:25:15;;;;;;;33.83;17.45;;;;;;;23.11;50.24;102438.50;5115347;28;20035;-77
2022/05/06 11:27:40;;;;;;;34.25;17.25;;;;;;;22.99;48.97;102435.13;5134154;28;20023;-77
2022/05/06 11:30:08;;;;;;;36.13;17.63;;;;;;;22.93;48.28;102435.34;5134097;28;20373;-77
2022/05/06 11:32:33;;;;;;;32.13;16.75;;;;;;;23.20;47.87;102433.41;5115148;28;20122;-77
2022/05/06 11:35:03;;;;;;;29.98;16.17;;;;;;;24.56;44.92;102432.59;5134093;28;20509;-77
2022/05/06 11:37:31;;;;;;;29.30;16.42;;;;;;;25.60;41.72;102438.75;5133306;28;20059;-77
2022/05/06 11:42:41;;;;;;;31.45;15.25;;;;;;;27.61;37.25;102417.91;5133273;28;20104;-77
2022/05/06 11:47:51;;;;;;;24.52;14.18;;;;;;;27.32;36.01;102419.84;5133642;27;20034;-78
2022/05/06 11:50:17;;;;;;;24.20;12.80;;;;;;;27.69;35.23;102427.50;5133383;28;20039;-78
2022/05/06 11:52:46;;;;;;;20.25;12.65;;;;;;;29.01;34.35;102423.06;5115524;28;20023;-77
2022/05/06 11:55:15;;;;;;;21.63;12.95;;;;;;;29.56;32.62;102426.81;5132880;28;20054;-77
2022/05/06 11:57:40;;;;;;;24.90;14.55;;;;;;;29.26;33.09;102422.63;5115419;28;20084;-78
2022/05/06 12:00:07;;;;;;;23.23;14.07;;;;;;;28.82;34.07;102416.72;5132899;28;20082;-78
2022/05/06 12:02:33;;;;;;;25.00;15.13;;;;;;;28.09;33.80;102415.22;5133724;28;20070;-77
2022/05/06 12:04:59;;;;;;;27.15;14.43;;;;;;;27.29;35.50;102403.94;5115173;28;20038;-77
2022/05/06 12:07:41;;;;;;;31.30;15.57;;;;;;;27.14;37.68;102407.63;5132817;28;20091;-78